sensor_id;sensor_type;location;lat;lon;timestamp;P1;durP1;ratioP1;P2;durP2;ratioP2
39074;SDS011;24826;52.070;20.970;2022-11-15T00:02:17;39.60;;;24.48;;
39074;SDS011;24826;52.070;20.970;2022-11-15T00:05:01;37.97;;;22.85;;
39074;SDS011;24826;52.070;20.970;2022-11-15T00:07:45;40.88;;;23.77;;
39074;SDS011;24826;52.070;20.970;2022-11-15T00:10:29;40.97;;;23.73;;
39074;SDS011;24826;52.070;20.970;2022-11-15T00:13:14;38.83;;;23.33;;
39074;SDS011;24826;52.070;20.970;2022-11-15T00:15:59;40.17;;;23.17;;
39074;SDS011;24826;52.070;20.970;2022-11-15T00:18:44;39.13;;;22.85;;
39074;SDS011;24826;52.070;20.970;2022-11-15T00:21:29;38.40;;;22.52;;
39074;SDS011;24826;52.070;20.970;2022-11-15T00:24:13;39.85;;;24.10;;
39074;SDS011;24826;52.070;20.970;2022-11-15T00:26:58;39.60;;;22.77;;
39074;SDS011;24826;52.070;20.970;2022-11-15T00:29:42;38.08;;;21.73;;
39074;SDS011;24826;52.070;20.970;2022-11-15T00:32:30;34.85;;;21.83;;
39074;SDS011;24826;52.070;20.970;2022-11-15T00:35:15;34.83;;;21.38;;
39074;SDS011;24826;52.070;20.970;2022-11-15T00:37:59;38.78;;;21.13;;
39074;SDS011;24826;52.070;20.970;2022-11-15T00:40:44;36.80;;;22.05;;
39074;SDS011;24826;52.070;20.970;2022-11-15T00:43:28;38.78;;;23.77;;
39074;SDS011;24826;52.070;20.970;2022-11-15T00:46:13;39.28;;;22.88;;
39074;SDS011;24826;52.070;20.970;2022-11-15T00:48:57;39.30;;;24.08;;
39074;SDS011;24826;52.070;20.970;2022-11-15T00:51:42;38.45;;;23.60;;
39074;SDS011;24826;52.070;20.970;2022-11-15T00:54:31;34.50;;;21.63;;
39074;SDS011;24826;52.070;20.970;2022-11-15T00:57:15;38.78;;;24.00;;
39074;SDS011;24826;52.070;20.970;2022-11-15T00:59:59;40.60;;;23.92;;
39074;SDS011;24826;52.070;20.970;2022-11-15T01:02:44;37.28;;;22.38;;
39074;SDS011;24826;52.070;20.970;2022-11-15T01:05:28;39.95;;;23.83;;
39074;SDS011;24826;52.070;20.970;2022-11-15T01:08:14;37.70;;;23.80;;
39074;SDS011;24826;52.070;20.970;2022-11-15T01:11:03;37.33;;;23.20;;
39074;SDS011;24826;52.070;20.970;2022-11-15T01:13:48;38.22;;;23.50;;
39074;SDS011;24826;52.070;20.970;2022-11-15T01:16:32;41.50;;;24.38;;
39074;SDS011;24826;52.070;20.970;2022-11-15T01:19:17;39.78;;;24.52;;
39074;SDS011;24826;52.070;20.970;2022-11-15T01:22:02;37.60;;;23.83;;
39074;SDS011;24826;52.070;20.970;2022-11-15T01:24:46;40.25;;;23.75;;
39074;SDS011;24826;52.070;20.970;2022-11-15T01:27:31;39.58;;;23.70;;
39074;SDS011;24826;52.070;20.970;2022-11-15T01:30:15;40.95;;;24.90;;
39074;SDS011;24826;52.070;20.970;2022-11-15T01:32:59;41.72;;;24.13;;
39074;SDS011;24826;52.070;20.970;2022-11-15T01:35:44;39.65;;;24.10;;
39074;SDS011;24826;52.070;20.970;2022-11-15T01:38:29;41.90;;;25.58;;
39074;SDS011;24826;52.070;20.970;2022-11-15T01:41:14;42.95;;;25.50;;
39074;SDS011;24826;52.070;20.970;2022-11-15T01:47:25;43.45;;;25.20;;
39074;SDS011;24826;52.070;20.970;2022-11-15T01:50:16;44.15;;;26.92;;
39074;SDS011;24826;52.070;20.970;2022-11-15T01:53:05;42.35;;;25.48;;
39074;SDS011;24826;52.070;20.970;2022-11-15T01:55:49;43.28;;;26.23;;
39074;SDS011;24826;52.070;20.970;2022-11-15T01:58:34;43.08;;;26.50;;
39074;SDS011;24826;52.070;20.970;2022-11-15T02:01:19;42.80;;;24.83;;
39074;SDS011;24826;52.070;20.970;2022-11-15T02:04:06;47.22;;;27.98;;
39074;SDS011;24826;52.070;20.970;2022-11-15T02:06:56;41.65;;;25.70;;
39074;SDS011;24826;52.070;20.970;2022-11-15T02:09:41;51.72;;;26.80;;
39074;SDS011;24826;52.070;20.970;2022-11-15T02:12:27;42.78;;;26.58;;
39074;SDS011;24826;52.070;20.970;2022-11-15T02:15:12;47.35;;;26.10;;
39074;SDS011;24826;52.070;20.970;2022-11-15T02:32:30;48.78;;;28.58;;
39074;SDS011;24826;52.070;20.970;2022-11-15T02:41:24;45.05;;;26.98;;
39074;SDS011;24826;52.070;20.970;2022-11-15T02:44:17;48.85;;;26.70;;
39074;SDS011;24826;52.070;20.970;2022-11-15T02:47:07;49.03;;;26.70;;
39074;SDS011;24826;52.070;20.970;2022-11-15T02:50:03;48.47;;;26.92;;
39074;SDS011;24826;52.070;20.970;2022-11-15T02:52:52;48.85;;;27.30;;
39074;SDS011;24826;52.070;20.970;2022-11-15T02:55:38;46.65;;;26.05;;
39074;SDS011;24826;52.070;20.970;2022-11-15T03:13:17;42.08;;;25.05;;
39074;SDS011;24826;52.070;20.970;2022-11-15T03:16:05;54.95;;;27.85;;
39074;SDS011;24826;52.070;20.970;2022-11-15T03:22:24;43.03;;;24.85;;
39074;SDS011;24826;52.070;20.970;2022-11-15T03:25:14;45.83;;;24.83;;
39074;SDS011;24826;52.070;20.970;2022-11-15T03:28:03;45.97;;;25.98;;
39074;SDS011;24826;52.070;20.970;2022-11-15T03:30:50;42.60;;;24.13;;
39074;SDS011;24826;52.070;20.970;2022-11-15T03:33:37;46.33;;;25.50;;
39074;SDS011;24826;52.070;20.970;2022-11-15T03:36:22;44.25;;;25.10;;
39074;SDS011;24826;52.070;20.970;2022-11-15T03:39:09;44.50;;;25.25;;
39074;SDS011;24826;52.070;20.970;2022-11-15T03:47:59;43.45;;;24.60;;
39074;SDS011;24826;52.070;20.970;2022-11-15T03:50:44;46.03;;;24.70;;
39074;SDS011;24826;52.070;20.970;2022-11-15T03:53:30;41.42;;;22.42;;
39074;SDS011;24826;52.070;20.970;2022-11-15T03:56:15;41.30;;;23.25;;
39074;SDS011;24826;52.070;20.970;2022-11-15T03:59:00;44.88;;;25.17;;
39074;SDS011;24826;52.070;20.970;2022-11-15T04:01:44;42.30;;;23.40;;
39074;SDS011;24826;52.070;20.970;2022-11-15T04:04:29;46.80;;;26.27;;
39074;SDS011;24826;52.070;20.970;2022-11-15T04:07:14;46.13;;;23.17;;
39074;SDS011;24826;52.070;20.970;2022-11-15T04:09:58;46.45;;;24.52;;
39074;SDS011;24826;52.070;20.970;2022-11-15T04:12:46;48.05;;;24.05;;
39074;SDS011;24826;52.070;20.970;2022-11-15T04:15:31;43.80;;;23.20;;
39074;SDS011;24826;52.070;20.970;2022-11-15T04:18:16;43.78;;;23.92;;
39074;SDS011;24826;52.070;20.970;2022-11-15T04:21:01;47.85;;;25.08;;
39074;SDS011;24826;52.070;20.970;2022-11-15T04:24:04;46.08;;;25.08;;
39074;SDS011;24826;52.070;20.970;2022-11-15T04:26:58;49.78;;;24.70;;
39074;SDS011;24826;52.070;20.970;2022-11-15T04:29:42;49.28;;;26.58;;
39074;SDS011;24826;52.070;20.970;2022-11-15T04:32:27;50.65;;;26.00;;
39074;SDS011;24826;52.070;20.970;2022-11-15T04:35:11;47.78;;;27.08;;
39074;SDS011;24826;52.070;20.970;2022-11-15T04:37:57;47.00;;;25.33;;
39074;SDS011;24826;52.070;20.970;2022-11-15T04:40:41;44.53;;;24.52;;
39074;SDS011;24826;52.070;20.970;2022-11-15T04:43:26;47.70;;;24.55;;
39074;SDS011;24826;52.070;20.970;2022-11-15T04:46:10;40.10;;;22.73;;
39074;SDS011;24826;52.070;20.970;2022-11-15T04:48:55;44.08;;;22.73;;
39074;SDS011;24826;52.070;20.970;2022-11-15T04:51:40;42.10;;;22.63;;
39074;SDS011;24826;52.070;20.970;2022-11-15T04:54:24;41.17;;;22.17;;
39074;SDS011;24826;52.070;20.970;2022-11-15T04:57:09;44.20;;;23.67;;
39074;SDS011;24826;52.070;20.970;2022-11-15T04:59:53;43.65;;;23.38;;
39074;SDS011;24826;52.070;20.970;2022-11-15T05:02:37;44.65;;;22.83;;
39074;SDS011;24826;52.070;20.970;2022-11-15T05:05:41;45.22;;;21.95;;
39074;SDS011;24826;52.070;20.970;2022-11-15T05:08:26;41.13;;;22.75;;
39074;SDS011;24826;52.070;20.970;2022-11-15T05:11:10;45.47;;;23.13;;
39074;SDS011;24826;52.070;20.970;2022-11-15T05:13:55;45.88;;;24.70;;
39074;SDS011;24826;52.070;20.970;2022-11-15T05:16:40;46.47;;;24.13;;
39074;SDS011;24826;52.070;20.970;2022-11-15T05:19:24;47.70;;;24.58;;
39074;SDS011;24826;52.070;20.970;2022-11-15T05:22:09;46.55;;;24.45;;
39074;SDS011;24826;52.070;20.970;2022-11-15T05:24:53;50.38;;;24.77;;
39074;SDS011;24826;52.070;20.970;2022-11-15T05:27:38;50.00;;;25.08;;
39074;SDS011;24826;52.070;20.970;2022-11-15T05:30:22;44.95;;;23.80;;
39074;SDS011;24826;52.070;20.970;2022-11-15T05:33:07;46.40;;;24.52;;
39074;SDS011;24826;52.070;20.970;2022-11-15T05:35:54;47.92;;;24.80;;
39074;SDS011;24826;52.070;20.970;2022-11-15T05:38:43;46.38;;;23.42;;
39074;SDS011;24826;52.070;20.970;2022-11-15T05:41:37;51.88;;;26.02;;
39074;SDS011;24826;52.070;20.970;2022-11-15T05:44:25;49.63;;;25.88;;
39074;SDS011;24826;52.070;20.970;2022-11-15T05:47:12;52.60;;;28.13;;
39074;SDS011;24826;52.070;20.970;2022-11-15T05:50:01;52.33;;;25.60;;
39074;SDS011;24826;52.070;20.970;2022-11-15T05:52:45;55.90;;;26.35;;
39074;SDS011;24826;52.070;20.970;2022-11-15T05:55:30;49.72;;;24.40;;
39074;SDS011;24826;52.070;20.970;2022-11-15T05:58:15;49.40;;;24.15;;
39074;SDS011;24826;52.070;20.970;2022-11-15T06:01:00;48.55;;;23.98;;
39074;SDS011;24826;52.070;20.970;2022-11-15T06:03:45;50.58;;;24.42;;
39074;SDS011;24826;52.070;20.970;2022-11-15T06:06:29;48.53;;;24.90;;
39074;SDS011;24826;52.070;20.970;2022-11-15T06:09:13;46.90;;;23.45;;
39074;SDS011;24826;52.070;20.970;2022-11-15T06:11:58;44.05;;;21.92;;
39074;SDS011;24826;52.070;20.970;2022-11-15T06:14:42;43.65;;;23.05;;
39074;SDS011;24826;52.070;20.970;2022-11-15T06:17:27;41.50;;;21.50;;
39074;SDS011;24826;52.070;20.970;2022-11-15T06:20:11;43.90;;;21.98;;
39074;SDS011;24826;52.070;20.970;2022-11-15T06:22:57;42.03;;;21.98;;
39074;SDS011;24826;52.070;20.970;2022-11-15T06:25:44;46.10;;;21.77;;
39074;SDS011;24826;52.070;20.970;2022-11-15T06:28:29;42.83;;;21.58;;
39074;SDS011;24826;52.070;20.970;2022-11-15T06:31:15;39.85;;;19.85;;
39074;SDS011;24826;52.070;20.970;2022-11-15T06:34:00;40.20;;;20.90;;
39074;SDS011;24826;52.070;20.970;2022-11-15T06:36:44;46.95;;;23.10;;
39074;SDS011;24826;52.070;20.970;2022-11-15T06:39:29;43.53;;;22.90;;
39074;SDS011;24826;52.070;20.970;2022-11-15T06:42:13;40.38;;;20.23;;
39074;SDS011;24826;52.070;20.970;2022-11-15T06:44:58;39.75;;;20.63;;
39074;SDS011;24826;52.070;20.970;2022-11-15T06:47:46;40.50;;;22.05;;
39074;SDS011;24826;52.070;20.970;2022-11-15T06:50:31;39.38;;;20.92;;
39074;SDS011;24826;52.070;20.970;2022-11-15T06:53:15;40.72;;;21.60;;
39074;SDS011;24826;52.070;20.970;2022-11-15T06:56:04;42.50;;;21.08;;
39074;SDS011;24826;52.070;20.970;2022-11-15T06:58:50;38.72;;;19.77;;
39074;SDS011;24826;52.070;20.970;2022-11-15T07:01:35;35.83;;;18.90;;
39074;SDS011;24826;52.070;20.970;2022-11-15T07:04:19;33.60;;;18.85;;
39074;SDS011;24826;52.070;20.970;2022-11-15T07:07:04;36.17;;;19.13;;
39074;SDS011;24826;52.070;20.970;2022-11-15T07:09:48;33.92;;;17.80;;
39074;SDS011;24826;52.070;20.970;2022-11-15T07:12:33;35.85;;;18.67;;
39074;SDS011;24826;52.070;20.970;2022-11-15T07:15:17;35.05;;;18.10;;
39074;SDS011;24826;52.070;20.970;2022-11-15T07:18:03;35.58;;;18.98;;
39074;SDS011;24826;52.070;20.970;2022-11-15T07:20:47;33.58;;;17.80;;
39074;SDS011;24826;52.070;20.970;2022-11-15T07:23:32;33.13;;;17.83;;
39074;SDS011;24826;52.070;20.970;2022-11-15T07:26:16;38.22;;;18.90;;
39074;SDS011;24826;52.070;20.970;2022-11-15T07:29:01;39.03;;;19.35;;
39074;SDS011;24826;52.070;20.970;2022-11-15T07:31:46;33.80;;;18.02;;
39074;SDS011;24826;52.070;20.970;2022-11-15T07:34:31;30.52;;;16.98;;
39074;SDS011;24826;52.070;20.970;2022-11-15T07:37:15;33.92;;;18.23;;
39074;SDS011;24826;52.070;20.970;2022-11-15T07:40:00;33.08;;;18.45;;
39074;SDS011;24826;52.070;20.970;2022-11-15T07:42:45;35.97;;;19.02;;
39074;SDS011;24826;52.070;20.970;2022-11-15T07:45:42;35.45;;;18.60;;
39074;SDS011;24826;52.070;20.970;2022-11-15T07:48:27;34.20;;;18.20;;
39074;SDS011;24826;52.070;20.970;2022-11-15T07:51:12;33.90;;;17.42;;
39074;SDS011;24826;52.070;20.970;2022-11-15T07:53:57;36.58;;;18.05;;
39074;SDS011;24826;52.070;20.970;2022-11-15T07:56:42;30.10;;;16.55;;
39074;SDS011;24826;52.070;20.970;2022-11-15T07:59:26;32.97;;;17.70;;
39074;SDS011;24826;52.070;20.970;2022-11-15T08:02:11;36.00;;;18.05;;
39074;SDS011;24826;52.070;20.970;2022-11-15T08:04:56;31.48;;;17.88;;
39074;SDS011;24826;52.070;20.970;2022-11-15T08:07:41;30.90;;;17.10;;
39074;SDS011;24826;52.070;20.970;2022-11-15T08:10:26;32.35;;;16.90;;
39074;SDS011;24826;52.070;20.970;2022-11-15T08:13:11;29.33;;;17.13;;
39074;SDS011;24826;52.070;20.970;2022-11-15T08:15:57;32.20;;;17.90;;
39074;SDS011;24826;52.070;20.970;2022-11-15T08:18:43;37.42;;;18.83;;
39074;SDS011;24826;52.070;20.970;2022-11-15T08:21:27;35.58;;;17.95;;
39074;SDS011;24826;52.070;20.970;2022-11-15T08:24:12;35.85;;;17.88;;
39074;SDS011;24826;52.070;20.970;2022-11-15T08:26:57;35.03;;;17.80;;
39074;SDS011;24826;52.070;20.970;2022-11-15T08:29:44;31.40;;;16.50;;
39074;SDS011;24826;52.070;20.970;2022-11-15T08:32:30;33.75;;;17.95;;
39074;SDS011;24826;52.070;20.970;2022-11-15T08:35:15;34.55;;;19.10;;
39074;SDS011;24826;52.070;20.970;2022-11-15T08:37:59;36.05;;;18.98;;
39074;SDS011;24826;52.070;20.970;2022-11-15T08:40:43;33.75;;;18.30;;
39074;SDS011;24826;52.070;20.970;2022-11-15T08:43:28;34.00;;;19.08;;
39074;SDS011;24826;52.070;20.970;2022-11-15T08:46:12;33.28;;;19.10;;
39074;SDS011;24826;52.070;20.970;2022-11-15T08:48:57;34.28;;;19.08;;
39074;SDS011;24826;52.070;20.970;2022-11-15T08:51:42;37.25;;;19.13;;
39074;SDS011;24826;52.070;20.970;2022-11-15T08:54:27;37.55;;;19.33;;
39074;SDS011;24826;52.070;20.970;2022-11-15T08:57:11;29.52;;;17.67;;
39074;SDS011;24826;52.070;20.970;2022-11-15T08:59:55;31.67;;;17.42;;
39074;SDS011;24826;52.070;20.970;2022-11-15T09:02:40;32.33;;;18.73;;
39074;SDS011;24826;52.070;20.970;2022-11-15T09:05:25;36.08;;;17.25;;
39074;SDS011;24826;52.070;20.970;2022-11-15T09:08:10;34.63;;;18.73;;
39074;SDS011;24826;52.070;20.970;2022-11-15T09:10:55;38.60;;;19.60;;
39074;SDS011;24826;52.070;20.970;2022-11-15T09:13:40;34.42;;;18.42;;
39074;SDS011;24826;52.070;20.970;2022-11-15T09:16:24;35.03;;;19.10;;
39074;SDS011;24826;52.070;20.970;2022-11-15T09:19:08;36.20;;;19.10;;
39074;SDS011;24826;52.070;20.970;2022-11-15T09:21:53;35.38;;;19.38;;
39074;SDS011;24826;52.070;20.970;2022-11-15T09:24:38;33.67;;;18.98;;
39074;SDS011;24826;52.070;20.970;2022-11-15T09:27:23;37.55;;;19.63;;
39074;SDS011;24826;52.070;20.970;2022-11-15T09:30:12;35.92;;;20.13;;
39074;SDS011;24826;52.070;20.970;2022-11-15T09:32:57;34.17;;;19.20;;
39074;SDS011;24826;52.070;20.970;2022-11-15T09:35:41;32.90;;;17.77;;
39074;SDS011;24826;52.070;20.970;2022-11-15T09:38:26;35.58;;;19.30;;
39074;SDS011;24826;52.070;20.970;2022-11-15T09:44:41;35.63;;;19.02;;
39074;SDS011;24826;52.070;20.970;2022-11-15T09:53:28;34.92;;;18.20;;
39074;SDS011;24826;52.070;20.970;2022-11-15T09:56:20;33.10;;;18.50;;
39074;SDS011;24826;52.070;20.970;2022-11-15T09:59:17;36.13;;;19.20;;
39074;SDS011;24826;52.070;20.970;2022-11-15T10:04:59;34.35;;;19.60;;
39074;SDS011;24826;52.070;20.970;2022-11-15T10:10:55;33.33;;;18.30;;
39074;SDS011;24826;52.070;20.970;2022-11-15T10:13:43;34.15;;;18.55;;
39074;SDS011;24826;52.070;20.970;2022-11-15T10:22:28;36.92;;;20.13;;
39074;SDS011;24826;52.070;20.970;2022-11-15T10:25:29;35.97;;;19.65;;
39074;SDS011;24826;52.070;20.970;2022-11-15T10:28:22;35.75;;;18.35;;
39074;SDS011;24826;52.070;20.970;2022-11-15T10:31:25;33.25;;;18.27;;
39074;SDS011;24826;52.070;20.970;2022-11-15T10:34:16;38.05;;;20.98;;
39074;SDS011;24826;52.070;20.970;2022-11-15T10:37:05;38.15;;;21.90;;
39074;SDS011;24826;52.070;20.970;2022-11-15T10:40:36;37.53;;;20.80;;
39074;SDS011;24826;52.070;20.970;2022-11-15T10:43:04;36.72;;;20.58;;
39074;SDS011;24826;52.070;20.970;2022-11-15T10:45:56;44.13;;;22.08;;
39074;SDS011;24826;52.070;20.970;2022-11-15T10:49:16;41.83;;;21.52;;
39074;SDS011;24826;52.070;20.970;2022-11-15T10:52:19;41.22;;;21.13;;
39074;SDS011;24826;52.070;20.970;2022-11-15T10:55:19;41.20;;;21.60;;
39074;SDS011;24826;52.070;20.970;2022-11-15T11:01:20;40.53;;;22.80;;
39074;SDS011;24826;52.070;20.970;2022-11-15T11:04:07;47.22;;;24.08;;
39074;SDS011;24826;52.070;20.970;2022-11-15T11:06:54;42.67;;;24.02;;
39074;SDS011;24826;52.070;20.970;2022-11-15T11:09:41;47.08;;;24.70;;
39074;SDS011;24826;52.070;20.970;2022-11-15T11:12:29;44.65;;;25.33;;
39074;SDS011;24826;52.070;20.970;2022-11-15T11:15:16;45.42;;;23.45;;
39074;SDS011;24826;52.070;20.970;2022-11-15T11:18:04;45.53;;;24.65;;
39074;SDS011;24826;52.070;20.970;2022-11-15T11:20:56;43.97;;;24.52;;
39074;SDS011;24826;52.070;20.970;2022-11-15T11:30:14;42.15;;;23.98;;
39074;SDS011;24826;52.070;20.970;2022-11-15T11:45:05;47.83;;;26.88;;
39074;SDS011;24826;52.070;20.970;2022-11-15T11:51:01;51.30;;;26.48;;
39074;SDS011;24826;52.070;20.970;2022-11-15T11:53:56;45.25;;;26.98;;
39074;SDS011;24826;52.070;20.970;2022-11-15T11:56:44;46.13;;;25.65;;
39074;SDS011;24826;52.070;20.970;2022-11-15T12:02:25;48.25;;;25.00;;
39074;SDS011;24826;52.070;20.970;2022-11-15T12:05:18;44.97;;;25.55;;
39074;SDS011;24826;52.070;20.970;2022-11-15T12:11:27;46.92;;;26.63;;
39074;SDS011;24826;52.070;20.970;2022-11-15T12:14:34;49.05;;;28.45;;
39074;SDS011;24826;52.070;20.970;2022-11-15T12:17:26;43.78;;;26.55;;
39074;SDS011;24826;52.070;20.970;2022-11-15T12:20:25;50.42;;;27.88;;
39074;SDS011;24826;52.070;20.970;2022-11-15T12:23:47;45.83;;;27.00;;
39074;SDS011;24826;52.070;20.970;2022-11-15T12:26:31;48.33;;;27.10;;
39074;SDS011;24826;52.070;20.970;2022-11-15T12:29:41;47.17;;;27.27;;
39074;SDS011;24826;52.070;20.970;2022-11-15T12:32:33;45.05;;;26.58;;
39074;SDS011;24826;52.070;20.970;2022-11-15T12:38:12;46.65;;;27.20;;
39074;SDS011;24826;52.070;20.970;2022-11-15T12:41:17;45.58;;;27.90;;
39074;SDS011;24826;52.070;20.970;2022-11-15T12:44:04;48.35;;;27.38;;
39074;SDS011;24826;52.070;20.970;2022-11-15T12:52:23;46.00;;;26.67;;
39074;SDS011;24826;52.070;20.970;2022-11-15T12:55:28;48.92;;;27.15;;
39074;SDS011;24826;52.070;20.970;2022-11-15T12:58:26;46.03;;;26.27;;
39074;SDS011;24826;52.070;20.970;2022-11-15T13:04:22;48.88;;;27.38;;
39074;SDS011;24826;52.070;20.970;2022-11-15T13:07:10;46.15;;;26.85;;
39074;SDS011;24826;52.070;20.970;2022-11-15T13:13:10;44.42;;;25.63;;
39074;SDS011;24826;52.070;20.970;2022-11-15T13:15:55;41.13;;;25.35;;
39074;SDS011;24826;52.070;20.970;2022-11-15T13:18:42;44.58;;;25.95;;
39074;SDS011;24826;52.070;20.970;2022-11-15T13:21:26;42.10;;;26.50;;
39074;SDS011;24826;52.070;20.970;2022-11-15T13:24:30;41.88;;;25.30;;
39074;SDS011;24826;52.070;20.970;2022-11-15T13:27:18;42.17;;;25.63;;
39074;SDS011;24826;52.070;20.970;2022-11-15T13:30:03;45.30;;;26.38;;
39074;SDS011;24826;52.070;20.970;2022-11-15T13:32:48;47.55;;;26.23;;
39074;SDS011;24826;52.070;20.970;2022-11-15T13:35:36;46.78;;;27.13;;
39074;SDS011;24826;52.070;20.970;2022-11-15T13:41:17;47.35;;;26.67;;
39074;SDS011;24826;52.070;20.970;2022-11-15T13:44:05;45.08;;;26.90;;
39074;SDS011;24826;52.070;20.970;2022-11-15T13:47:05;43.77;;;26.83;;
39074;SDS011;24826;52.070;20.970;2022-11-15T13:49:50;45.30;;;25.92;;
39074;SDS011;24826;52.070;20.970;2022-11-15T13:52:35;40.28;;;25.42;;
39074;SDS011;24826;52.070;20.970;2022-11-15T13:55:23;44.22;;;25.60;;
39074;SDS011;24826;52.070;20.970;2022-11-15T13:58:09;47.92;;;24.55;;
39074;SDS011;24826;52.070;20.970;2022-11-15T14:01:00;42.50;;;24.55;;
39074;SDS011;24826;52.070;20.970;2022-11-15T14:03:48;41.13;;;25.08;;
39074;SDS011;24826;52.070;20.970;2022-11-15T14:06:42;44.22;;;24.50;;
39074;SDS011;24826;52.070;20.970;2022-11-15T14:09:33;43.55;;;25.88;;
39074;SDS011;24826;52.070;20.970;2022-11-15T14:12:33;42.63;;;24.60;;
39074;SDS011;24826;52.070;20.970;2022-11-15T14:24:19;43.05;;;24.67;;
39074;SDS011;24826;52.070;20.970;2022-11-15T14:30:12;44.03;;;25.42;;
39074;SDS011;24826;52.070;20.970;2022-11-15T14:32:58;48.25;;;26.20;;
39074;SDS011;24826;52.070;20.970;2022-11-15T14:35:42;45.10;;;25.65;;
39074;SDS011;24826;52.070;20.970;2022-11-15T14:38:27;51.15;;;26.75;;
39074;SDS011;24826;52.070;20.970;2022-11-15T14:41:17;46.53;;;26.65;;
39074;SDS011;24826;52.070;20.970;2022-11-15T14:44:04;46.08;;;26.63;;
39074;SDS011;24826;52.070;20.970;2022-11-15T14:46:49;44.83;;;26.08;;
39074;SDS011;24826;52.070;20.970;2022-11-15T14:49:33;47.65;;;27.63;;
39074;SDS011;24826;52.070;20.970;2022-11-15T14:55:14;46.20;;;26.30;;
39074;SDS011;24826;52.070;20.970;2022-11-15T14:58:05;46.70;;;27.10;;
39074;SDS011;24826;52.070;20.970;2022-11-15T15:00:53;46.72;;;27.77;;
39074;SDS011;24826;52.070;20.970;2022-11-15T15:03:37;47.17;;;27.67;;
39074;SDS011;24826;52.070;20.970;2022-11-15T15:06:22;46.65;;;27.13;;
39074;SDS011;24826;52.070;20.970;2022-11-15T15:09:07;44.50;;;25.83;;
39074;SDS011;24826;52.070;20.970;2022-11-15T15:11:51;48.17;;;27.42;;
39074;SDS011;24826;52.070;20.970;2022-11-15T15:14:38;47.30;;;27.75;;
39074;SDS011;24826;52.070;20.970;2022-11-15T15:17:22;51.33;;;29.48;;
39074;SDS011;24826;52.070;20.970;2022-11-15T15:20:06;45.30;;;27.58;;
39074;SDS011;24826;52.070;20.970;2022-11-15T15:22:51;46.08;;;27.80;;
39074;SDS011;24826;52.070;20.970;2022-11-15T15:25:36;54.35;;;29.70;;
39074;SDS011;24826;52.070;20.970;2022-11-15T15:28:20;47.55;;;28.65;;
39074;SDS011;24826;52.070;20.970;2022-11-15T15:31:04;49.20;;;27.55;;
39074;SDS011;24826;52.070;20.970;2022-11-15T15:33:49;48.55;;;29.55;;
39074;SDS011;24826;52.070;20.970;2022-11-15T15:36:33;55.95;;;30.92;;
39074;SDS011;24826;52.070;20.970;2022-11-15T15:39:18;51.25;;;29.88;;
39074;SDS011;24826;52.070;20.970;2022-11-15T15:42:02;54.95;;;30.65;;
39074;SDS011;24826;52.070;20.970;2022-11-15T15:44:48;49.58;;;30.02;;
39074;SDS011;24826;52.070;20.970;2022-11-15T15:47:34;56.22;;;31.08;;
39074;SDS011;24826;52.070;20.970;2022-11-15T15:50:26;53.42;;;31.20;;
39074;SDS011;24826;52.070;20.970;2022-11-15T15:53:12;53.30;;;29.60;;
39074;SDS011;24826;52.070;20.970;2022-11-15T15:55:57;54.20;;;29.35;;
39074;SDS011;24826;52.070;20.970;2022-11-15T15:58:41;54.67;;;31.00;;
39074;SDS011;24826;52.070;20.970;2022-11-15T16:01:26;54.42;;;30.38;;
39074;SDS011;24826;52.070;20.970;2022-11-15T16:04:10;50.15;;;30.48;;
39074;SDS011;24826;52.070;20.970;2022-11-15T16:06:58;53.97;;;29.85;;
39074;SDS011;24826;52.070;20.970;2022-11-15T16:09:43;53.05;;;29.50;;
39074;SDS011;24826;52.070;20.970;2022-11-15T16:12:47;65.63;;;30.88;;
39074;SDS011;24826;52.070;20.970;2022-11-15T16:15:32;51.67;;;29.40;;
39074;SDS011;24826;52.070;20.970;2022-11-15T16:18:17;59.55;;;30.08;;
39074;SDS011;24826;52.070;20.970;2022-11-15T16:21:01;50.90;;;29.90;;
39074;SDS011;24826;52.070;20.970;2022-11-15T16:23:46;56.92;;;31.15;;
39074;SDS011;24826;52.070;20.970;2022-11-15T16:26:31;54.47;;;30.42;;
39074;SDS011;24826;52.070;20.970;2022-11-15T16:29:18;53.15;;;29.05;;
39074;SDS011;24826;52.070;20.970;2022-11-15T16:32:03;56.17;;;29.27;;
39074;SDS011;24826;52.070;20.970;2022-11-15T16:34:47;54.88;;;27.85;;
39074;SDS011;24826;52.070;20.970;2022-11-15T16:37:31;54.42;;;29.90;;
39074;SDS011;24826;52.070;20.970;2022-11-15T16:40:23;51.08;;;28.88;;
39074;SDS011;24826;52.070;20.970;2022-11-15T16:43:10;49.65;;;29.65;;
39074;SDS011;24826;52.070;20.970;2022-11-15T16:45:55;50.70;;;27.50;;
39074;SDS011;24826;52.070;20.970;2022-11-15T16:48:39;57.22;;;29.67;;
39074;SDS011;24826;52.070;20.970;2022-11-15T16:51:24;49.03;;;28.02;;
39074;SDS011;24826;52.070;20.970;2022-11-15T16:54:08;59.63;;;31.13;;
39074;SDS011;24826;52.070;20.970;2022-11-15T16:56:53;56.55;;;30.50;;
39074;SDS011;24826;52.070;20.970;2022-11-15T16:59:38;52.03;;;29.45;;
39074;SDS011;24826;52.070;20.970;2022-11-15T17:02:23;53.55;;;29.77;;
39074;SDS011;24826;52.070;20.970;2022-11-15T17:05:07;58.72;;;31.13;;
39074;SDS011;24826;52.070;20.970;2022-11-15T17:07:52;60.80;;;30.13;;
39074;SDS011;24826;52.070;20.970;2022-11-15T17:10:39;54.42;;;30.67;;
39074;SDS011;24826;52.070;20.970;2022-11-15T17:13:27;56.45;;;30.63;;
39074;SDS011;24826;52.070;20.970;2022-11-15T17:16:12;58.20;;;31.83;;
39074;SDS011;24826;52.070;20.970;2022-11-15T17:18:58;54.28;;;29.85;;
39074;SDS011;24826;52.070;20.970;2022-11-15T17:21:42;57.95;;;31.15;;
39074;SDS011;24826;52.070;20.970;2022-11-15T17:24:28;55.30;;;30.83;;
39074;SDS011;24826;52.070;20.970;2022-11-15T17:27:12;58.67;;;31.45;;
39074;SDS011;24826;52.070;20.970;2022-11-15T17:29:58;56.95;;;30.38;;
39074;SDS011;24826;52.070;20.970;2022-11-15T17:32:42;56.47;;;31.95;;
39074;SDS011;24826;52.070;20.970;2022-11-15T17:35:27;63.08;;;33.83;;
39074;SDS011;24826;52.070;20.970;2022-11-15T17:38:11;59.25;;;30.85;;
39074;SDS011;24826;52.070;20.970;2022-11-15T17:43:49;58.28;;;32.10;;
39074;SDS011;24826;52.070;20.970;2022-11-15T17:46:33;60.08;;;32.05;;
39074;SDS011;24826;52.070;20.970;2022-11-15T17:49:22;62.28;;;31.15;;
39074;SDS011;24826;52.070;20.970;2022-11-15T17:52:07;60.50;;;31.25;;
39074;SDS011;24826;52.070;20.970;2022-11-15T17:54:51;62.40;;;33.05;;
39074;SDS011;24826;52.070;20.970;2022-11-15T17:57:35;61.97;;;33.20;;
39074;SDS011;24826;52.070;20.970;2022-11-15T18:00:19;67.55;;;34.22;;
39074;SDS011;24826;52.070;20.970;2022-11-15T18:03:04;61.78;;;32.15;;
39074;SDS011;24826;52.070;20.970;2022-11-15T18:05:48;65.82;;;33.33;;
39074;SDS011;24826;52.070;20.970;2022-11-15T18:08:36;69.38;;;34.78;;
39074;SDS011;24826;52.070;20.970;2022-11-15T18:11:36;73.35;;;34.10;;
39074;SDS011;24826;52.070;20.970;2022-11-15T18:14:22;63.05;;;31.90;;
39074;SDS011;24826;52.070;20.970;2022-11-15T18:17:08;68.07;;;33.55;;
39074;SDS011;24826;52.070;20.970;2022-11-15T18:19:53;76.03;;;35.50;;